Time;durP1;ratioP1;P1;durP2;ratioP2;P2;SDS_P1;SDS_P2;PMS_P1;PMS_P2;Temp;Humidity;BMP_temperature;BMP_pressure;BME280_temperature;BME280_humidity;BME280_pressure;Samples;Min_cycle;Max_cycle;Signal;HPM_P1;HPM_P2
2022/12/07 00:01:49;;;;;;;25.92;15.43;;;4.30;99.90;;;;;;5136662;27;20206;-62
2022/12/07 00:04:18;;;;;;;27.30;17.13;;;4.30;99.90;;;;;;5136458;27;20198;-62
2022/12/07 00:06:46;;;;;;;25.60;17.27;;;4.40;99.90;;;;;;5136247;27;20669;-62
2022/12/07 00:09:17;;;;;;;22.75;15.57;;;4.40;99.90;;;;;;5136558;27;20222;-62
2022/12/07 00:11:44;;;;;;;27.58;16.70;;;4.40;99.90;;;;;;5136557;27;20190;-62
2022/12/07 00:14:13;;;;;;;25.00;16.02;;;4.40;99.90;;;;;;5137071;28;20670;-63
2022/12/07 00:16:41;;;;;;;24.25;15.98;;;4.40;99.90;;;;;;5136767;28;20203;-62
2022/12/07 00:19:08;;;;;;;22.08;14.90;;;4.50;99.90;;;;;;5138694;28;20219;-62
2022/12/07 00:21:36;;;;;;;26.35;15.75;;;4.50;99.90;;;;;;5137386;28;20555;-61
2022/12/07 00:24:05;;;;;;;26.00;15.40;;;4.50;99.90;;;;;;5136522;28;20199;-63
2022/12/07 00:26:35;;;;;;;24.55;15.27;;;4.50;99.90;;;;;;5138574;27;20764;-63
2022/12/07 00:29:04;;;;;;;27.90;14.60;;;4.50;99.90;;;;;;5139995;27;20231;-63
2022/12/07 00:31:34;;;;;;;19.77;14.30;;;4.50;99.90;;;;;;5140159;27;20203;-62
2022/12/07 00:34:02;;;;;;;24.02;16.25;;;4.50;99.90;;;;;;5139561;27;20541;-63
2022/12/07 00:36:29;;;;;;;19.90;14.07;;;4.50;99.90;;;;;;5139125;27;20202;-62
2022/12/07 00:38:58;;;;;;;20.30;14.30;;;4.60;99.90;;;;;;5139096;27;20219;-63
2022/12/07 00:41:27;;;;;;;22.25;14.43;;;4.50;99.90;;;;;;5139437;27;20667;-61
2022/12/07 00:43:56;;;;;;;24.30;16.35;;;4.50;99.90;;;;;;5139776;27;20199;-63
2022/12/07 00:46:23;;;;;;;24.13;15.77;;;4.50;99.90;;;;;;5139543;27;20233;-62
2022/12/07 00:48:50;;;;;;;20.88;15.20;;;4.60;99.90;;;;;;5139339;27;20339;-62
2022/12/07 00:51:19;;;;;;;23.80;16.02;;;4.60;99.90;;;;;;5139452;27;20293;-62
2022/12/07 00:53:46;;;;;;;21.45;14.40;;;4.60;99.90;;;;;;5139625;27;20217;-63
2022/12/07 00:56:15;;;;;;;22.98;15.75;;;4.60;99.90;;;;;;5139012;27;20245;-63
2022/12/07 00:58:42;;;;;;;22.88;14.82;;;4.60;99.90;;;;;;5139239;27;20229;-62
2022/12/07 01:01:11;;;;;;;21.13;14.38;;;4.60;99.90;;;;;;5139213;27;20240;-62
2022/12/07 01:03:39;;;;;;;25.27;15.40;;;4.60;99.90;;;;;;5138773;27;20202;-62
2022/12/07 01:06:06;;;;;;;22.20;13.38;;;4.70;99.90;;;;;;5139882;27;20207;-63
2022/12/07 01:08:33;;;;;;;23.45;15.25;;;4.60;99.90;;;;;;5139130;27;20221;-63
2022/12/07 01:11:01;;;;;;;21.50;14.35;;;4.70;99.90;;;;;;5139462;27;20206;-63
2022/12/07 01:13:28;;;;;;;22.48;15.02;;;4.70;99.90;;;;;;5138843;27;20266;-63
2022/12/07 01:15:59;;;;;;;19.80;14.65;;;4.70;99.90;;;;;;5139207;27;20305;-62
2022/12/07 01:18:28;;;;;;;22.13;16.77;;;4.70;99.90;;;;;;5139728;27;20234;-63
2022/12/07 01:20:59;;;;;;;24.30;17.75;;;4.70;99.90;;;;;;5139141;27;20205;-62
2022/12/07 01:23:26;;;;;;;23.60;16.10;;;4.70;99.90;;;;;;5138887;27;20202;-62
2022/12/07 01:25:56;;;;;;;21.35;15.05;;;4.70;99.90;;;;;;5138754;27;20225;-62
2022/12/07 01:28:23;;;;;;;28.63;16.23;;;4.70;99.90;;;;;;5138340;27;20241;-63
2022/12/07 01:30:56;;;;;;;26.45;16.30;;;4.70;99.90;;;;;;5139040;27;20205;-62
2022/12/07 01:33:23;;;;;;;25.25;16.50;;;4.70;99.90;;;;;;5138364;27;20218;-63
2022/12/07 01:35:51;;;;;;;25.80;18.88;;;4.70;99.90;;;;;;5138023;27;20223;-63
2022/12/07 01:38:18;;;;;;;24.55;17.60;;;4.70;99.90;;;;;;5137481;27;20226;-63
2022/12/07 01:40:45;;;;;;;28.58;19.23;;;4.60;99.90;;;;;;5138107;27;20194;-62
2022/12/07 01:43:17;;;;;;;25.17;17.27;;;4.60;99.90;;;;;;5137645;27;20288;-62
2022/12/07 01:45:44;;;;;;;28.00;19.00;;;4.60;99.90;;;;;;5138823;27;20521;-62
2022/12/07 01:48:14;;;;;;;27.10;18.10;;;4.60;99.90;;;;;;5138259;27;20596;-62
2022/12/07 01:50:42;;;;;;;26.90;18.13;;;4.60;99.90;;;;;;5138103;27;20207;-62
2022/12/07 01:53:11;;;;;;;23.85;17.40;;;4.60;99.90;;;;;;5138400;27;20198;-62
2022/12/07 01:55:42;;;;;;;28.33;17.65;;;4.60;99.90;;;;;;5138644;27;20218;-61
2022/12/07 01:58:10;;;;;;;27.10;18.40;;;4.50;99.90;;;;;;5138127;27;20706;-63
2022/12/07 02:00:36;;;;;;;24.40;17.92;;;4.50;99.90;;;;;;5137734;27;20213;-62
2022/12/07 02:03:08;;;;;;;25.02;17.30;;;4.50;99.90;;;;;;5137657;27;20240;-62
2022/12/07 02:05:36;;;;;;;23.75;17.02;;;4.40;99.90;;;;;;5137898;27;20190;-61
2022/12/07 02:08:03;;;;;;;24.90;17.45;;;4.40;99.90;;;;;;5137541;27;20228;-61
2022/12/07 02:10:33;;;;;;;19.65;14.43;;;4.30;99.90;;;;;;5137808;27;20213;-62
2022/12/07 02:13:03;;;;;;;26.35;18.27;;;4.30;99.90;;;;;;5137413;27;20213;-61
2022/12/07 02:15:36;;;;;;;21.63;15.77;;;4.30;99.90;;;;;;5137558;27;20249;-63
2022/12/07 02:18:10;;;;;;;20.98;14.15;;;4.30;99.90;;;;;;5137516;27;20222;-62
2022/12/07 02:20:41;;;;;;;28.55;15.95;;;4.30;99.90;;;;;;5137011;27;20184;-61
2022/12/07 02:23:39;;;;;;;23.42;16.67;;;4.30;99.90;;;;;;5136679;27;20557;-61
2022/12/07 02:26:39;;;;;;;25.05;17.67;;;4.30;99.90;;;;;;5137000;27;20186;-61
2022/12/07 02:29:22;;;;;;;25.65;17.63;;;4.20;99.90;;;;;;5137059;27;20250;-63
2022/12/07 02:31:57;;;;;;;23.50;15.27;;;4.20;99.90;;;;;;5136919;27;20187;-62
2022/12/07 02:34:32;;;;;;;26.70;17.65;;;4.20;99.90;;;;;;5137365;27;20186;-64
2022/12/07 02:37:04;;;;;;;25.50;17.40;;;4.20;99.90;;;;;;5136859;27;20201;-63
2022/12/07 02:39:37;;;;;;;25.20;18.10;;;4.10;99.90;;;;;;5137455;27;20183;-62
2022/12/07 02:42:14;;;;;;;22.98;14.90;;;4.20;99.90;;;;;;5136840;27;20190;-62
2022/12/07 02:44:43;;;;;;;24.20;16.92;;;4.10;99.90;;;;;;5136583;27;20190;-62
2022/12/07 02:47:14;;;;;;;28.08;16.38;;;4.10;99.90;;;;;;5137250;27;20205;-62
2022/12/07 02:49:41;;;;;;;25.45;15.50;;;4.10;99.90;;;;;;5137663;27;20210;-62
2022/12/07 02:52:07;;;;;;;27.83;16.17;;;4.00;99.90;;;;;;5138319;27;20588;-62
2022/12/07 02:54:34;;;;;;;24.30;15.82;;;4.00;99.90;;;;;;5137401;27;20206;-62
2022/12/07 02:57:13;;;;;;;26.35;16.88;;;4.00;99.90;;;;;;5136696;27;20197;-62
2022/12/07 02:59:51;;;;;;;28.55;17.15;;;4.00;99.90;;;;;;5136859;27;20186;-62
2022/12/07 03:02:25;;;;;;;24.13;15.98;;;4.10;99.90;;;;;;5136655;27;20201;-62
2022/12/07 03:05:06;;;;;;;24.45;16.10;;;4.10;99.90;;;;;;5136648;27;20187;-61
2022/12/07 03:07:43;;;;;;;21.15;14.30;;;4.20;99.90;;;;;;5136345;27;20222;-61
2022/12/07 03:10:19;;;;;;;21.95;14.02;;;4.20;99.90;;;;;;5136052;27;20235;-62
2022/12/07 03:12:54;;;;;;;24.48;15.07;;;4.20;99.90;;;;;;5136503;27;20564;-62
2022/12/07 03:15:27;;;;;;;20.95;14.38;;;4.20;99.90;;;;;;5137769;27;20214;-62
2022/12/07 03:17:58;;;;;;;21.58;14.73;;;4.20;99.90;;;;;;5140053;27;20226;-62
2022/12/07 03:20:28;;;;;;;23.45;14.93;;;4.20;99.90;;;;;;5140101;27;20184;-62
2022/12/07 03:22:55;;;;;;;26.40;14.70;;;4.20;99.90;;;;;;5140150;27;20194;-62
2022/12/07 03:25:23;;;;;;;22.88;13.40;;;4.30;99.90;;;;;;5139025;27;20210;-61
2022/12/07 03:27:55;;;;;;;23.10;12.75;;;4.30;99.90;;;;;;5139411;27;20234;-62
2022/12/07 03:30:28;;;;;;;20.42;14.05;;;4.30;99.90;;;;;;5139267;27;20183;-61
2022/12/07 03:33:02;;;;;;;22.45;13.65;;;4.20;99.90;;;;;;5137857;27;20183;-62
2022/12/07 03:35:33;;;;;;;23.95;12.38;;;4.20;99.90;;;;;;5137831;27;20198;-63
2022/12/07 03:38:06;;;;;;;18.52;12.60;;;4.20;99.90;;;;;;5138064;27;20226;-62
2022/12/07 03:40:37;;;;;;;21.55;12.98;;;4.20;99.90;;;;;;5138103;27;20193;-61
2022/12/07 03:43:05;;;;;;;21.10;11.40;;;4.20;99.90;;;;;;5137766;27;20183;-62
2022/12/07 03:45:41;;;;;;;19.10;10.50;;;4.20;99.90;;;;;;5138948;27;20194;-62
2022/12/07 03:48:13;;;;;;;15.15;10.40;;;4.20;99.90;;;;;;5140468;27;20237;-62
2022/12/07 03:50:45;;;;;;;17.13;12.25;;;4.20;99.90;;;;;;5139819;27;20194;-63
2022/12/07 03:53:16;;;;;;;17.63;11.60;;;4.20;99.90;;;;;;5139567;27;20190;-63
2022/12/07 03:55:45;;;;;;;21.05;11.95;;;4.20;99.90;;;;;;5138747;27;20209;-62
2022/12/07 03:58:16;;;;;;;17.45;11.25;;;4.20;99.90;;;;;;5137842;27;20218;-62
2022/12/07 04:00:45;;;;;;;14.77;9.48;;;4.10;99.90;;;;;;5138092;27;20193;-62
2022/12/07 04:03:12;;;;;;;16.42;10.65;;;4.10;99.90;;;;;;5138868;27;20206;-62
2022/12/07 04:05:40;;;;;;;14.02;8.95;;;4.10;99.90;;;;;;5138755;27;20207;-62
2022/12/07 04:10:42;;;;;;;17.00;10.85;;;4.10;99.90;;;;;;5174822;27;20592;-61
2022/12/07 04:13:08;;;;;;;18.38;10.23;;;4.10;99.90;;;;;;5174425;27;20207;-61
2022/12/07 04:15:35;;;;;;;17.17;10.48;;;4.00;99.90;;;;;;5174295;27;20204;-61
2022/12/07 04:18:02;;;;;;;15.80;10.68;;;4.00;99.90;;;;;;5174093;27;20217;-62
2022/12/07 04:20:29;;;;;;;17.10;11.63;;;4.00;99.90;;;;;;5174386;27;20189;-61
2022/12/07 04:22:56;;;;;;;15.00;9.73;;;4.00;99.90;;;;;;5188283;22;20208;-62
2022/12/07 04:25:22;;;;;;;15.70;9.27;;;4.00;99.90;;;;;;5095236;28;20212;-64
2022/12/07 04:27:50;;;;;;;16.08;10.30;;;4.00;99.90;;;;;;5096499;28;20200;-63
2022/12/07 04:30:17;;;;;;;16.45;10.80;;;4.00;99.90;;;;;;5096742;28;20220;-63
2022/12/07 04:32:44;;;;;;;18.10;11.65;;;3.90;99.90;;;;;;5096780;28;20200;-63
2022/12/07 04:35:11;;;;;;;18.27;10.98;;;3.90;99.90;;;;;;5095497;28;20204;-63
2022/12/07 04:37:39;;;;;;;24.27;11.95;;;4.00;99.90;;;;;;5095510;28;20208;-63
2022/12/07 04:40:08;;;;;;;15.90;10.60;;;4.00;99.90;;;;;;5096385;28;20197;-63
2022/12/07 04:42:35;;;;;;;17.15;10.40;;;3.90;99.90;;;;;;5095996;28;20208;-63
2022/12/07 04:45:03;;;;;;;17.63;12.32;;;3.90;99.90;;;;;;5096071;28;20593;-64
2022/12/07 04:47:30;;;;;;;16.40;11.10;;;4.00;99.90;;;;;;5095742;28;20205;-63
2022/12/07 04:49:57;;;;;;;18.75;11.30;;;4.00;99.90;;;;;;5092458;28;20707;-64
2022/12/07 04:52:24;;;;;;;14.45;10.38;;;4.00;99.90;;;;;;5092075;28;20208;-63
2022/12/07 04:54:50;;;;;;;15.82;10.52;;;4.00;99.90;;;;;;5091690;28;20224;-64
2022/12/07 04:57:17;;;;;;;17.27;10.40;;;4.00;99.90;;;;;;5092930;28;20204;-63
2022/12/07 04:59:44;;;;;;;21.17;10.45;;;3.90;99.90;;;;;;5092536;28;20200;-63
2022/12/07 05:02:12;;;;;;;15.90;11.65;;;3.90;99.90;;;;;;5093087;28;20200;-63
2022/12/07 05:04:39;;;;;;;16.75;9.70;;;3.90;99.90;;;;;;5092636;28;20227;-64
2022/12/07 05:07:05;;;;;;;21.33;11.07;;;3.90;99.90;;;;;;5092796;28;20207;-63
2022/12/07 05:09:32;;;;;;;16.08;9.82;;;3.90;99.90;;;;;;5092723;28;20220;-63
2022/12/07 05:11:59;;;;;;;14.43;8.68;;;3.90;99.90;;;;;;5092472;28;20204;-63
2022/12/07 05:14:26;;;;;;;17.88;9.38;;;3.80;99.90;;;;;;5093147;28;20247;-64
2022/12/07 05:16:53;;;;;;;15.43;10.10;;;3.80;99.90;;;;;;5093717;28;20208;-63
2022/12/07 05:19:22;;;;;;;18.58;10.88;;;3.80;99.90;;;;;;5093443;28;20196;-63
2022/12/07 05:21:49;;;;;;;17.67;11.30;;;3.80;99.90;;;;;;5083251;28;20657;-63
2022/12/07 05:24:17;;;;;;;18.52;9.13;;;3.70;99.90;;;;;;5080320;28;20734;-63
2022/12/07 05:26:44;;;;;;;18.30;9.52;;;3.70;99.90;;;;;;5078811;28;20222;-63
2022/12/07 05:29:13;;;;;;;15.90;9.27;;;3.70;99.90;;;;;;5077608;28;20715;-63
2022/12/07 05:31:40;;;;;;;16.42;8.95;;;3.60;99.90;;;;;;5077615;28;20555;-64
2022/12/07 05:34:06;;;;;;;14.48;9.60;;;3.60;99.90;;;;;;5077380;28;20226;-64
2022/12/07 05:36:34;;;;;;;13.60;8.80;;;3.60;99.90;;;;;;5076017;28;20197;-62
2022/12/07 05:39:01;;;;;;;16.25;10.05;;;3.60;99.90;;;;;;5075970;28;20661;-64
2022/12/07 05:44:15;;;;;;;16.05;9.38;;;3.50;99.90;;;;;;5058523;28;20270;-63
2022/12/07 05:46:41;;;;;;;17.20;8.13;;;3.50;99.90;;;;;;5076496;28;20208;-63
2022/12/07 05:49:08;;;;;;;19.92;9.90;;;3.50;99.90;;;;;;5076827;28;20223;-63
2022/12/07 05:51:36;;;;;;;12.35;7.80;;;3.60;99.90;;;;;;5076113;28;20219;-62
2022/12/07 05:54:03;;;;;;;13.90;7.72;;;3.60;99.90;;;;;;5075902;28;20221;-63
2022/12/07 05:56:30;;;;;;;16.83;8.52;;;3.60;99.90;;;;;;5076126;28;20219;-64
2022/12/07 06:01:41;;;;;;;17.42;8.07;;;3.60;99.90;;;;;;5076688;28;20180;-63
2022/12/07 06:04:08;;;;;;;15.80;9.02;;;3.60;99.90;;;;;;5078141;28;20596;-63
2022/12/07 06:06:36;;;;;;;17.58;10.32;;;3.70;99.90;;;;;;5075541;28;20204;-63
2022/12/07 06:09:04;;;;;;;14.35;7.40;;;3.60;99.90;;;;;;5060594;28;20285;-63
2022/12/07 06:14:20;;;;;;;14.57;7.22;;;3.70;99.90;;;;;;5064987;28;20256;-63
2022/12/07 06:16:47;;;;;;;12.15;7.20;;;3.70;99.90;;;;;;5061502;28;20205;-64
2022/12/07 06:19:13;;;;;;;11.75;6.72;;;3.70;99.90;;;;;;5079703;28;20205;-63
2022/12/07 06:21:42;;;;;;;10.60;6.50;;;3.70;99.90;;;;;;5079419;28;20209;-64
2022/12/07 06:24:09;;;;;;;10.13;6.40;;;3.70;99.90;;;;;;5081266;28;20240;-63
2022/12/07 06:26:36;;;;;;;11.02;6.65;;;3.70;99.90;;;;;;5081666;28;20661;-63
2022/12/07 06:29:03;;;;;;;10.73;6.65;;;3.70;99.90;;;;;;5079874;28;20201;-63
2022/12/07 06:31:30;;;;;;;11.52;6.28;;;3.70;99.90;;;;;;5082125;28;20216;-63
2022/12/07 06:33:59;;;;;;;11.90;6.35;;;3.70;99.90;;;;;;5081626;28;20228;-63
2022/12/07 06:36:25;;;;;;;8.75;6.15;;;3.70;99.90;;;;;;5078707;28;20201;-63
2022/12/07 06:38:54;;;;;;;12.02;6.13;;;3.70;99.90;;;;;;5077073;28;20205;-64
2022/12/07 06:41:20;;;;;;;9.23;5.93;;;3.70;99.90;;;;;;5079174;28;20212;-64
2022/12/07 06:43:47;;;;;;;14.27;7.43;;;3.70;99.90;;;;;;5077950;28;20221;-64
2022/12/07 06:46:14;;;;;;;14.23;6.35;;;3.80;99.90;;;;;;5078730;28;20197;-64
2022/12/07 06:48:41;;;;;;;10.07;6.00;;;3.70;99.90;;;;;;5079244;28;20201;-63
2022/12/07 06:51:08;;;;;;;7.95;5.57;;;3.70;99.90;;;;;;5079718;28;20225;-64
2022/12/07 06:53:35;;;;;;;7.75;5.13;;;3.70;99.90;;;;;;5081495;28;20232;-63
2022/12/07 06:56:04;;;;;;;10.65;5.45;;;3.70;99.90;;;;;;5079615;28;20201;-64
2022/12/07 06:58:31;;;;;;;9.15;4.93;;;3.70;99.90;;;;;;5078522;28;20216;-61
2022/12/07 07:00:58;;;;;;;8.38;5.30;;;3.60;99.90;;;;;;5079580;28;20715;-63
2022/12/07 07:03:25;;;;;;;7.75;4.85;;;3.60;99.90;;;;;;5079005;28;20224;-64
2022/12/07 07:05:51;;;;;;;8.15;6.53;;;3.60;99.90;;;;;;5078197;28;20207;-63
2022/12/07 07:08:18;;;;;;;10.60;5.30;;;3.60;99.90;;;;;;5076617;28;20197;-62
2022/12/07 07:10:45;;;;;;;12.65;5.00;;;3.60;99.90;;;;;;5082647;28;20221;-63
2022/12/07 07:13:13;;;;;;;7.78;5.20;;;3.60;99.90;;;;;;5079191;28;20224;-64
2022/12/07 07:15:40;;;;;;;11.25;5.00;;;3.50;99.90;;;;;;5065610;28;20215;-64
2022/12/07 07:18:06;;;;;;;9.25;4.30;;;3.50;99.90;;;;;;5073200;28;20201;-64
2022/12/07 07:20:33;;;;;;;6.53;4.22;;;3.50;99.90;;;;;;5063950;28;20204;-64
2022/12/07 07:23:00;;;;;;;6.55;4.03;;;3.50;99.90;;;;;;5075242;28;20201;-63
2022/12/07 07:25:26;;;;;;;15.55;4.25;;;3.50;99.90;;;;;;5060533;28;20202;-63
2022/12/07 07:27:53;;;;;;;14.43;4.50;;;3.50;99.90;;;;;;5054447;28;20212;-62
2022/12/07 07:30:22;;;;;;;5.55;3.60;;;3.50;99.90;;;;;;5053438;28;20228;-63
2022/12/07 07:32:49;;;;;;;8.80;4.30;;;3.50;99.90;;;;;;5060539;28;20209;-62
2022/12/07 07:35:16;;;;;;;5.53;3.92;;;3.50;99.90;;;;;;5073933;28;20231;-60
2022/12/07 07:37:43;;;;;;;9.57;4.15;;;3.60;99.90;;;;;;5073552;28;20208;-62
2022/12/07 07:40:11;;;;;;;11.15;4.00;;;3.60;99.90;;;;;;5074046;28;20203;-63
2022/12/07 07:42:38;;;;;;;6.50;3.17;;;3.60;99.90;;;;;;5074131;28;20205;-63
2022/12/07 07:45:05;;;;;;;6.88;3.85;;;3.60;99.90;;;;;;5074009;28;20260;-62
2022/12/07 07:47:33;;;;;;;9.32;4.60;;;3.60;99.90;;;;;;5073485;28;20208;-62
2022/12/07 07:50:00;;;;;;;6.03;3.20;;;3.60;99.90;;;;;;5074173;28;20220;-63
2022/12/07 07:52:27;;;;;;;8.60;3.40;;;3.60;99.90;;;;;;5073691;28;20207;-64
2022/12/07 07:54:54;;;;;;;6.30;2.95;;;3.60;99.90;;;;;;5074045;28;20228;-63
2022/12/07 07:57:21;;;;;;;7.15;3.35;;;3.60;99.90;;;;;;5073772;28;20212;-62
2022/12/07 07:59:47;;;;;;;7.07;4.20;;;3.60;99.90;;;;;;5074827;28;20201;-64
2022/12/07 08:02:16;;;;;;;7.93;2.88;;;3.60;99.90;;;;;;5075657;28;20205;-63
2022/12/07 08:04:45;;;;;;;10.85;3.90;;;3.60;99.90;;;;;;5073348;28;20224;-63
2022/12/07 08:07:12;;;;;;;5.05;2.88;;;3.60;99.90;;;;;;5073495;28;20224;-62
2022/12/07 08:09:39;;;;;;;4.28;2.63;;;3.60;99.90;;;;;;5073679;28;20201;-64
2022/12/07 08:12:06;;;;;;;7.22;3.25;;;3.70;99.90;;;;;;5073410;28;20215;-63
2022/12/07 08:14:34;;;;;;;3.45;2.60;;;3.70;99.90;;;;;;5073505;28;20224;-63
2022/12/07 08:17:01;;;;;;;7.15;2.50;;;3.70;99.90;;;;;;5073475;28;20230;-63
2022/12/07 08:19:28;;;;;;;2.47;2.28;;;3.70;99.90;;;;;;5073777;28;20215;-62
2022/12/07 08:21:56;;;;;;;3.25;1.70;;;3.80;99.90;;;;;;5073517;28;20204;-64
2022/12/07 08:24:24;;;;;;;4.35;3.22;;;3.80;99.90;;;;;;5073075;28;20228;-63
2022/12/07 08:26:51;;;;;;;3.45;2.10;;;3.80;99.90;;;;;;5073530;28;20201;-64
2022/12/07 08:29:18;;;;;;;2.70;2.10;;;3.80;99.90;;;;;;5074493;28;20196;-63
2022/12/07 08:31:45;;;;;;;8.48;2.50;;;3.90;99.90;;;;;;5073419;28;20224;-63
2022/12/07 08:34:13;;;;;;;5.20;2.55;;;3.90;99.90;;;;;;5075011;28;20231;-63
2022/12/07 08:36:39;;;;;;;4.20;2.88;;;3.90;99.90;;;;;;5073717;28;20201;-63
2022/12/07 08:39:08;;;;;;;6.53;2.85;;;3.90;99.90;;;;;;5073632;28;20203;-63
2022/12/07 08:41:35;;;;;;;8.48;2.20;;;3.90;99.90;;;;;;5073779;28;20211;-64
2022/12/07 08:44:01;;;;;;;3.88;2.35;;;3.90;99.90;;;;;;5073208;28;20229;-63
2022/12/07 08:46:34;;;;;;;3.20;2.15;;;4.00;99.90;;;;;;5073985;28;20224;-63
2022/12/07 08:49:05;;;;;;;4.57;2.75;;;4.00;99.90;;;;;;5073946;28;20185;-63
2022/12/07 08:51:32;;;;;;;5.13;2.15;;;4.00;99.90;;;;;;5072228;28;20307;-64
2022/12/07 08:54:02;;;;;;;3.05;1.83;;;4.00;99.90;;;;;;5073167;28;20633;-63
2022/12/07 08:56:30;;;;;;;4.72;2.20;;;4.00;99.90;;;;;;5075525;28;20200;-64
2022/12/07 08:58:58;;;;;;;3.10;2.45;;;4.10;99.90;;;;;;5076946;28;20216;-63
2022/12/07 09:01:24;;;;;;;3.72;2.17;;;4.10;99.90;;;;;;5077495;28;20661;-62
2022/12/07 09:03:51;;;;;;;5.35;2.20;;;4.10;99.90;;;;;;5076785;28;20221;-62
2022/12/07 09:06:18;;;;;;;3.65;1.80;;;4.10;99.90;;;;;;5076371;28;20205;-63
2022/12/07 09:08:48;;;;;;;6.75;2.17;;;4.10;99.90;;;;;;5076536;28;20586;-63
2022/12/07 09:11:14;;;;;;;5.38;3.05;;;4.00;99.90;;;;;;5076177;28;20243;-64
2022/12/07 09:13:42;;;;;;;4.43;1.70;;;4.00;99.90;;;;;;5075987;28;20224;-63
2022/12/07 09:16:09;;;;;;;3.30;1.50;;;4.00;99.90;;;;;;5075829;28;20200;-64
2022/12/07 09:18:36;;;;;;;2.70;2.28;;;4.00;99.90;;;;;;5076540;28;20201;-63
2022/12/07 09:21:03;;;;;;;6.53;1.70;;;4.00;99.90;;;;;;5076250;28;20208;-63
2022/12/07 09:23:29;;;;;;;2.88;1.65;;;4.00;99.90;;;;;;5076294;28;20704;-63
2022/12/07 09:25:59;;;;;;;3.60;2.10;;;4.00;99.90;;;;;;5077139;28;20676;-63
2022/12/07 09:28:26;;;;;;;4.28;2.10;;;4.10;99.90;;;;;;5077006;28;20205;-63
2022/12/07 09:30:54;;;;;;;2.08;1.88;;;4.10;99.90;;;;;;5076042;28;20647;-62
2022/12/07 09:33:21;;;;;;;12.90;1.80;;;4.20;99.90;;;;;;5076870;28;20224;-63
2022/12/07 09:35:48;;;;;;;1.83;1.55;;;4.20;99.90;;;;;;5076320;28;20249;-63
2022/12/07 09:38:15;;;;;;;5.05;2.03;;;4.30;99.90;;;;;;5076701;28;20216;-63
2022/12/07 09:40:43;;;;;;;5.72;1.88;;;4.30;99.90;;;;;;5076135;28;20204;-64
2022/12/07 09:43:14;;;;;;;4.03;1.77;;;4.30;99.90;;;;;;5077208;28;20221;-63
2022/12/07 09:45:42;;;;;;;4.40;1.50;;;4.30;99.90;;;;;;5076364;28;20196;-63
2022/12/07 09:48:17;;;;;;;3.20;1.70;;;4.40;99.90;;;;;;5077690;28;20201;-61
2022/12/07 09:50:44;;;;;;;3.47;1.63;;;4.40;99.90;;;;;;5076957;28;20205;-64
2022/12/07 09:53:16;;;;;;;1.75;1.40;;;4.50;99.90;;;;;;5077106;28;20221;-63
2022/12/07 09:55:44;;;;;;;2.33;1.13;;;4.60;99.90;;;;;;5078266;28;20189;-62
2022/12/07 09:58:18;;;;;;;3.88;1.40;;;4.70;99.90;;;;;;5078979;28;20201;-62
2022/12/07 10:00:45;;;;;;;6.55;1.98;;;4.80;99.90;;;;;;5078968;28;20177;-63
2022/12/07 10:03:14;;;;;;;2.70;1.83;;;4.80;99.90;;;;;;5079200;28;20240;-63
2022/12/07 10:05:45;;;;;;;4.55;1.88;;;4.90;99.90;;;;;;5081279;28;20211;-63
2022/12/07 10:08:13;;;;;;;2.88;1.55;;;4.90;99.90;;;;;;5078218;28;20185;-62
2022/12/07 10:10:41;;;;;;;4.97;1.88;;;4.80;99.90;;;;;;5080329;28;20712;-62
2022/12/07 10:13:09;;;;;;;1.30;1.20;;;4.80;99.90;;;;;;5082425;28;20308;-63
2022/12/07 10:15:47;;;;;;;6.13;1.80;;;4.90;99.90;;;;;;5078493;28;20254;-63
2022/12/07 10:18:30;;;;;;;1.50;1.40;;;5.00;99.90;;;;;;5077264;28;20190;-64
2022/12/07 10:21:07;;;;;;;4.25;2.15;;;5.10;99.90;;;;;;5076541;28;20181;-64
2022/12/07 10:23:35;;;;;;;3.53;1.60;;;5.20;99.90;;;;;;5075695;28;20233;-63
2022/12/07 10:26:21;;;;;;;3.45;1.48;;;5.20;99.90;;;;;;5111673;22;20237;-65
2022/12/07 10:28:48;;;;;;;2.55;1.55;;;5.30;99.90;;;;;;5096281;28;20200;-67
2022/12/07 10:31:19;;;;;;;2.92;1.50;;;5.20;99.90;;;;;;5095485;28;20217;-65
2022/12/07 10:33:52;;;;;;;6.60;1.70;;;5.10;99.90;;;;;;5095449;28;20200;-68
2022/12/07 10:36:23;;;;;;;3.53;2.88;;;5.00;99.90;;;;;;5095195;28;20235;-66
2022/12/07 10:38:52;;;;;;;8.30;2.17;;;5.00;99.90;;;;;;5094991;28;20231;-67
2022/12/07 10:41:19;;;;;;;2.97;1.50;;;4.90;99.90;;;;;;5094646;28;20196;-65
2022/12/07 10:43:52;;;;;;;5.32;1.55;;;4.90;99.90;;;;;;5094857;28;20257;-66
2022/12/07 10:46:56;;;;;;;6.50;2.20;;;4.90;99.90;;;;;;5094812;28;20268;-65
2022/12/07 10:49:45;;;;;;;3.65;1.52;;;4.90;99.90;;;;;;5095009;28;20184;-64
2022/12/07 10:52:21;;;;;;;2.55;2.00;;;4.90;99.90;;;;;;5096299;28;20293;-61
2022/12/07 10:55:01;;;;;;;4.03;2.35;;;4.90;99.90;;;;;;5096643;28;20281;-59
2022/12/07 10:57:41;;;;;;;5.30;2.10;;;4.90;99.90;;;;;;5095547;28;20195;-60
2022/12/07 11:00:19;;;;;;;3.33;2.00;;;5.00;99.90;;;;;;5095578;28;20213;-59
2022/12/07 11:03:09;;;;;;;3.53;1.55;;;4.90;99.90;;;;;;5095350;28;20185;-61
2022/12/07 11:05:43;;;;;;;3.13;1.75;;;4.90;99.90;;;;;;5096230;28;20220;-60
2022/12/07 11:08:21;;;;;;;5.05;2.10;;;4.70;99.90;;;;;;5096440;28;20192;-60
2022/12/07 11:10:55;;;;;;;6.85;2.17;;;4.70;99.90;;;;;;5094503;28;20212;-61
2022/12/07 11:13:30;;;;;;;4.80;1.90;;;4.60;99.90;;;;;;5094501;28;20205;-62
2022/12/07 11:16:27;;;;;;;4.28;1.52;;;4.60;99.90;;;;;;5094358;28;20220;-59
2022/12/07 11:19:06;;;;;;;2.90;1.70;;;4.50;99.90;;;;;;5099510;28;20191;-57
2022/12/07 11:21:44;;;;;;;4.85;1.58;;;4.40;99.90;;;;;;5100718;28;20185;-59
2022/12/07 11:24:15;;;;;;;3.72;1.80;;;4.40;99.90;;;;;;5098511;28;20200;-62
2022/12/07 11:27:07;;;;;;;4.90;1.80;;;4.20;99.90;;;;;;5096438;28;20742;-60
2022/12/07 11:29:47;;;;;;;2.47;1.10;;;4.10;99.90;;;;;;5091906;28;20197;-61
2022/12/07 11:32:20;;;;;;;3.00;1.77;;;3.90;99.90;;;;;;5093775;28;20212;-61
2022/12/07 11:34:58;;;;;;;2.25;1.27;;;3.70;99.90;;;;;;5093613;28;20217;-62
2022/12/07 11:37:32;;;;;;;2.10;1.50;;;3.50;99.90;;;;;;5093525;28;20188;-59
2022/12/07 11:40:04;;;;;;;2.92;1.58;;;3.40;99.90;;;;;;5093206;28;20579;-59
2022/12/07 11:42:34;;;;;;;2.40;1.67;;;3.30;99.90;;;;;;5093445;28;20184;-59
2022/12/07 11:45:10;;;;;;;2.90;1.70;;;3.30;99.90;;;;;;5093437;28;20243;-59
2022/12/07 11:47:44;;;;;;;2.72;1.58;;;3.30;99.90;;;;;;5092071;28;20191;-60
2022/12/07 11:50:25;;;;;;;1.92;1.70;;;3.30;99.90;;;;;;5093566;28;20274;-59
2022/12/07 11:52:58;;;;;;;4.72;1.50;;;3.30;99.90;;;;;;5093472;28;20184;-59
2022/12/07 11:55:31;;;;;;;2.63;1.60;;;3.40;99.90;;;;;;5093152;28;20716;-60
2022/12/07 11:58:08;;;;;;;4.28;1.85;;;3.40;99.90;;;;;;5092985;28;20701;-59
2022/12/07 12:00:37;;;;;;;5.07;2.05;;;3.50;99.90;;;;;;5093352;28;20184;-60
2022/12/07 12:03:11;;;;;;;4.90;2.45;;;3.60;99.90;;;;;;5093122;28;20207;-60
2022/12/07 12:05:40;;;;;;;4.72;2.58;;;3.60;99.90;;;;;;5093166;28;20230;-60
2022/12/07 12:08:15;;;;;;;7.32;3.70;;;3.80;99.90;;;;;;5093069;28;20206;-60
2022/12/07 12:10:55;;;;;;;5.68;2.60;;;3.80;99.90;;;;;;5093023;28;20180;-59
2022/12/07 12:13:49;;;;;;;2.95;2.60;;;3.90;99.90;;;;;;5093569;28;20185;-60
2022/12/07 12:16:38;;;;;;;3.17;2.63;;;4.00;99.90;;;;;;5093488;28;20274;-59
2022/12/07 12:19:19;;;;;;;8.70;3.25;;;4.10;99.90;;;;;;5094036;28;20219;-60
2022/12/07 12:21:50;;;;;;;3.83;2.80;;;4.30;99.90;;;;;;5093912;28;20180;-61
2022/12/07 12:24:23;;;;;;;7.25;2.63;;;4.40;99.90;;;;;;5093668;28;20195;-60
2022/12/07 12:26:53;;;;;;;4.78;2.05;;;4.50;99.90;;;;;;5092896;28;20187;-59
2022/12/07 12:29:27;;;;;;;4.88;2.60;;;4.50;99.90;;;;;;5092913;28;20188;-59
2022/12/07 12:32:12;;;;;;;8.10;3.20;;;4.60;99.90;;;;;;5095528;28;20204;-59
2022/12/07 12:34:58;;;;;;;9.70;2.72;;;4.60;99.90;;;;;;5097421;28;20561;-59
2022/12/07 12:37:41;;;;;;;5.00;2.60;;;4.60;99.90;;;;;;5096882;28;20184;-59
2022/12/07 12:40:53;;;;;;;11.50;4.20;;;4.60;99.90;;;;;;5098290;28;20191;-59
2022/12/07 12:43:49;;;;;;;9.63;2.60;;;4.60;99.90;;;;;;5098250;28;20640;-60
2022/12/07 12:46:48;;;;;;;10.02;2.70;;;4.60;99.90;;;;;;5097811;28;20231;-59
2022/12/07 12:49:36;;;;;;;7.20;2.85;;;4.70;99.90;;;;;;5097424;28;20192;-60
2022/12/07 12:52:44;;;;;;;10.40;2.78;;;4.70;99.90;;;;;;5096736;28;20692;-60
2022/12/07 12:55:18;;;;;;;6.30;2.42;;;4.70;99.90;;;;;;5071078;28;20315;-59
2022/12/07 12:57:45;;;;;;;3.17;2.13;;;4.60;99.90;;;;;;5096988;28;20212;-59
2022/12/07 13:00:20;;;;;;;6.25;2.10;;;4.60;99.90;;;;;;5096759;28;20200;-59
2022/12/07 13:02:52;;;;;;;5.38;2.88;;;4.60;99.90;;;;;;5096747;28;20658;-61
2022/12/07 13:05:21;;;;;;;4.07;2.38;;;4.60;99.90;;;;;;5097238;28;20224;-61
2022/12/07 13:07:53;;;;;;;4.25;2.40;;;4.60;99.90;;;;;;5096950;28;20197;-60
2022/12/07 13:10:39;;;;;;;6.43;3.10;;;4.70;99.90;;;;;;5096503;28;20582;-59
2022/12/07 13:13:30;;;;;;;5.10;2.45;;;4.80;99.90;;;;;;5097345;28;20231;-61
2022/12/07 13:16:39;;;;;;;3.95;2.60;;;4.80;99.90;;;;;;5096560;28;20228;-61
2022/12/07 13:19:42;;;;;;;6.78;2.28;;;4.90;99.90;;;;;;5096435;28;20598;-61